createdAt,value
2017-10-12T00:01:42.212Z,57.20
2017-10-12T00:04:10.721Z,57.40
2017-10-12T00:06:38.976Z,57.20
2017-10-12T00:09:07.243Z,57.50
2017-10-12T00:11:35.704Z,57.20
2017-10-12T00:14:05.575Z,57.20
2017-10-12T00:16:33.856Z,57.40
2017-10-12T00:19:02.155Z,57.20
2017-10-12T00:21:30.425Z,57.30
2017-10-12T00:23:59.342Z,58.20
2017-10-12T00:26:28.366Z,57.50
2017-10-12T00:28:56.644Z,57.70
2017-10-12T00:31:24.872Z,57.30
2017-10-12T00:33:54.491Z,57.60
2017-10-12T00:36:24.438Z,57.30
2017-10-12T00:38:52.716Z,57.50
2017-10-12T00:41:20.999Z,57.80
2017-10-12T00:43:49.271Z,58.00
2017-10-12T00:46:17.553Z,58.40
2017-10-12T00:48:45.891Z,58.80
2017-10-12T00:51:14.166Z,59.10
2017-10-12T00:53:42.551Z,59.40
2017-10-12T00:56:10.832Z,59.90
2017-10-12T00:58:39.222Z,60.40
2017-10-12T01:01:08.451Z,61.10
2017-10-12T01:03:38.411Z,62.10
2017-10-12T01:06:06.628Z,62.10
2017-10-12T01:08:35.344Z,62.10
2017-10-12T01:11:06.459Z,62.30
2017-10-12T01:13:34.716Z,62.20
2017-10-12T01:16:02.975Z,62.20
2017-10-12T01:18:31.295Z,62.20
2017-10-12T01:20:59.555Z,62.30
2017-10-12T01:23:27.838Z,62.50
2017-10-12T01:25:56.323Z,62.80
2017-10-12T01:28:24.604Z,62.90
2017-10-12T01:30:58.822Z,62.80
2017-10-12T01:33:28.550Z,63.20
2017-10-12T01:35:59.063Z,63.00
2017-10-12T01:38:29.481Z,63.20
2017-10-12T01:40:59.881Z,63.60
2017-10-12T01:43:29.184Z,63.40
2017-10-12T01:45:57.459Z,63.30
2017-10-12T01:48:37.687Z,63.50
2017-10-12T01:51:06.688Z,63.60
2017-10-12T01:53:34.984Z,63.60
2017-10-12T01:56:03.264Z,63.70
2017-10-12T01:58:32.363Z,64.30
2017-10-12T02:01:00.644Z,64.30
2017-10-12T02:03:28.967Z,64.30
2017-10-12T02:05:57.394Z,64.70
2017-10-12T02:08:25.640Z,64.90
2017-10-12T02:10:55.599Z,64.70
2017-10-12T02:13:23.881Z,64.80
2017-10-12T02:15:52.167Z,64.60
2017-10-12T02:18:21.404Z,64.60
2017-10-12T02:20:50.412Z,65.00
2017-10-12T02:23:21.494Z,64.80
2017-10-12T02:25:49.758Z,64.70
2017-10-12T02:28:18.004Z,65.30
2017-10-12T02:30:47.031Z,65.30
2017-10-12T02:33:15.331Z,65.30
2017-10-12T02:35:43.582Z,65.60
2017-10-12T02:38:11.859Z,65.20
2017-10-12T02:40:42.081Z,65.60
2017-10-12T02:43:10.327Z,65.60
2017-10-12T02:45:40.256Z,66.40
2017-10-12T02:48:08.494Z,65.50
2017-10-12T02:50:36.758Z,65.10
2017-10-12T02:53:05.009Z,65.30
2017-10-12T02:55:33.256Z,65.20
2017-10-12T02:58:02.414Z,65.30
2017-10-12T03:00:30.663Z,65.60
2017-10-12T03:02:58.923Z,65.30
2017-10-12T03:05:27.170Z,65.50
2017-10-12T03:07:56.201Z,65.40
2017-10-12T03:10:24.452Z,65.30
2017-10-12T03:12:53.473Z,65.00
2017-10-12T03:15:21.754Z,65.50
2017-10-12T03:17:50.006Z,64.90
2017-10-12T03:20:18.277Z,64.80
2017-10-12T03:22:46.546Z,65.00
2017-10-12T03:25:14.787Z,64.90
2017-10-12T03:27:43.276Z,64.80
2017-10-12T03:30:11.552Z,65.10
2017-10-12T03:32:40.579Z,64.90
2017-10-12T03:35:08.913Z,64.80
2017-10-12T03:37:37.144Z,64.80
2017-10-12T03:40:05.385Z,64.80
2017-10-12T03:42:34.385Z,65.30
2017-10-12T03:45:02.664Z,64.80
2017-10-12T03:47:31.789Z,64.80
2017-10-12T03:50:01.033Z,64.70
2017-10-12T03:52:29.281Z,64.60
2017-10-12T03:54:57.557Z,64.60
2017-10-12T03:57:25.787Z,64.50
2017-10-12T03:59:54.080Z,64.20
2017-10-12T04:02:22.320Z,64.00
2017-10-12T04:04:51.327Z,63.90
2017-10-12T04:07:19.612Z,63.60
2017-10-12T04:09:47.871Z,63.70
2017-10-12T04:12:16.175Z,63.60
2017-10-12T04:14:44.479Z,63.40
2017-10-12T04:17:12.800Z,63.20
2017-10-12T04:19:41.073Z,63.40
2017-10-12T04:22:10.173Z,63.20
2017-10-12T04:24:38.538Z,63.20
2017-10-12T04:27:07.789Z,64.10
2017-10-12T04:29:36.825Z,62.70
2017-10-12T04:32:05.068Z,62.70
2017-10-12T04:34:33.356Z,62.80
2017-10-12T04:37:01.678Z,62.40
2017-10-12T04:39:30.072Z,62.40
2017-10-12T04:41:58.312Z,62.30
2017-10-12T04:44:26.556Z,62.10
2017-10-12T04:46:54.836Z,62.20
2017-10-12T04:49:23.078Z,62.30
2017-10-12T04:51:52.140Z,62.30
2017-10-12T04:54:20.355Z,62.20
2017-10-12T04:56:49.412Z,62.10
2017-10-12T04:59:17.703Z,62.40
2017-10-12T05:01:46.752Z,62.30
2017-10-12T05:04:15.033Z,62.20
2017-10-12T05:06:44.204Z,62.10
2017-10-12T05:09:12.548Z,62.30
2017-10-12T05:11:41.670Z,62.40
2017-10-12T05:14:10.681Z,62.40
2017-10-12T05:16:38.948Z,62.30
2017-10-12T05:19:07.217Z,62.40
2017-10-12T05:21:36.250Z,62.30
2017-10-12T05:24:05.511Z,62.30
2017-10-12T05:26:35.309Z,61.00
2017-10-12T05:29:03.548Z,60.80
2017-10-12T05:31:32.703Z,59.40
2017-10-12T05:34:00.952Z,58.90
2017-10-12T05:36:29.217Z,58.20
2017-10-12T05:38:57.481Z,58.10
2017-10-12T05:41:25.774Z,57.60
2017-10-12T05:43:55.521Z,57.80
2017-10-12T05:46:23.793Z,57.40
2017-10-12T05:48:53.020Z,57.50
2017-10-12T05:51:21.331Z,57.50
2017-10-12T05:53:49.625Z,57.30
2017-10-12T05:56:17.941Z,57.30
2017-10-12T05:58:50.262Z,57.10
2017-10-12T06:01:18.539Z,57.30
2017-10-12T06:03:46.797Z,57.30
2017-10-12T06:06:15.085Z,57.30
2017-10-12T06:08:44.334Z,57.20
2017-10-12T06:11:12.671Z,57.30
2017-10-12T06:13:40.948Z,57.20
2017-10-12T06:16:10.289Z,57.00
2017-10-12T06:18:38.550Z,57.20
2017-10-12T06:21:08.368Z,57.30
2017-10-12T06:23:36.680Z,56.90
2017-10-12T06:26:04.924Z,57.20
2017-10-12T06:28:33.170Z,57.10
2017-10-12T06:31:01.461Z,57.40
2017-10-12T06:33:30.464Z,56.90
2017-10-12T06:35:58.711Z,57.20
2017-10-12T06:38:27.829Z,56.50
2017-10-12T06:40:56.845Z,56.50
2017-10-12T06:43:25.120Z,56.20
2017-10-12T06:45:53.387Z,56.40
2017-10-12T06:48:21.654Z,56.40
2017-10-12T06:50:50.689Z,56.70
2017-10-12T06:53:18.972Z,56.90
2017-10-12T06:55:48.054Z,57.60
2017-10-12T07:00:40.370Z,56.80
2017-10-12T07:03:08.792Z,57.00
2017-10-12T07:05:37.087Z,56.90
2017-10-12T07:08:05.375Z,57.20
2017-10-12T07:10:33.657Z,56.70
2017-10-12T07:13:02.879Z,57.10
2017-10-12T07:15:31.935Z,56.70
2017-10-12T07:18:00.256Z,57.10
2017-10-12T07:20:28.519Z,56.80
2017-10-12T07:22:57.659Z,56.70
2017-10-12T07:25:25.937Z,56.60
2017-10-12T07:27:55.099Z,56.70
2017-10-12T07:30:23.391Z,57.00
2017-10-12T07:32:52.648Z,57.20
2017-10-12T07:35:20.947Z,57.40
2017-10-12T07:37:49.978Z,57.50
2017-10-12T07:40:18.287Z,57.20
2017-10-12T07:42:46.539Z,57.40
2017-10-12T07:45:14.812Z,57.30
2017-10-12T07:47:43.087Z,57.50
2017-10-12T07:50:11.455Z,57.70
2017-10-12T07:52:39.727Z,57.60
2017-10-12T07:55:07.980Z,57.60
2017-10-12T07:57:37.035Z,57.70
2017-10-12T08:00:05.298Z,57.40
2017-10-12T08:02:33.536Z,57.40
2017-10-12T08:05:02.801Z,57.60
2017-10-12T08:07:31.057Z,57.70
2017-10-12T08:09:59.318Z,57.50
2017-10-12T08:12:30.347Z,57.40
2017-10-12T08:14:58.614Z,57.60
2017-10-12T08:17:26.908Z,57.40
2017-10-12T08:19:55.320Z,57.70
2017-10-12T08:22:23.607Z,57.60
2017-10-12T08:24:52.492Z,57.60
2017-10-12T08:27:20.788Z,57.60
2017-10-12T08:29:50.036Z,57.50
2017-10-12T08:32:18.284Z,57.70
2017-10-12T08:34:46.652Z,57.40
2017-10-12T08:37:14.916Z,57.40
2017-10-12T08:39:44.903Z,58.10
2017-10-12T08:42:13.222Z,57.50
2017-10-12T08:44:43.115Z,57.50
2017-10-12T08:47:12.193Z,57.50
2017-10-12T08:49:43.550Z,57.30
2017-10-12T08:52:11.846Z,57.20
2017-10-12T08:54:41.098Z,57.00
2017-10-12T08:57:09.443Z,57.20
2017-10-12T08:59:37.792Z,57.30
2017-10-12T09:02:07.033Z,56.80
2017-10-12T09:04:35.323Z,57.10
2017-10-12T09:07:03.599Z,56.80
2017-10-12T09:09:31.869Z,56.90
2017-10-12T09:12:00.246Z,56.80
2017-10-12T09:14:29.482Z,56.90
2017-10-12T09:16:57.801Z,56.70
2017-10-12T09:19:26.052Z,56.90
2017-10-12T09:21:55.073Z,56.50
2017-10-12T09:24:23.360Z,56.50
2017-10-12T09:26:52.573Z,56.70
2017-10-12T09:29:20.881Z,56.90
2017-10-12T09:31:49.972Z,56.30
2017-10-12T09:34:18.231Z,56.10
2017-10-12T09:36:46.576Z,55.90
2017-10-12T09:39:14.896Z,56.00
2017-10-12T09:41:44.113Z,55.90
2017-10-12T09:44:13.332Z,56.20
2017-10-12T09:46:41.676Z,56.20
2017-10-12T09:49:11.066Z,55.60
2017-10-12T09:51:39.379Z,55.60
2017-10-12T09:54:08.468Z,55.40
2017-10-12T09:56:36.788Z,55.40
2017-10-12T09:59:05.980Z,55.50
2017-10-12T10:01:34.285Z,55.30
2017-10-12T10:04:02.596Z,54.60
2017-10-12T10:06:30.854Z,54.60
2017-10-12T10:08:59.341Z,54.40
2017-10-12T10:11:27.612Z,54.40
2017-10-12T10:13:55.892Z,53.80
2017-10-12T10:16:25.160Z,53.60
2017-10-12T10:18:53.520Z,53.90
2017-10-12T10:21:23.375Z,53.80
2017-10-12T10:23:51.677Z,53.70
2017-10-12T10:26:21.045Z,53.70
2017-10-12T10:28:53.820Z,53.70
2017-10-12T10:31:22.954Z,53.20
2017-10-12T10:33:51.289Z,53.00
2017-10-12T10:36:20.553Z,52.90
2017-10-12T10:38:50.869Z,52.20
2017-10-12T10:41:19.164Z,53.20
2017-10-12T10:43:47.451Z,52.90
2017-10-12T10:46:15.953Z,52.80
2017-10-12T10:48:44.406Z,52.70
2017-10-12T10:51:14.299Z,52.00
2017-10-12T10:53:43.539Z,51.90
2017-10-12T10:56:12.957Z,51.80
2017-10-12T10:58:41.476Z,52.20
2017-10-12T11:01:10.003Z,52.10
2017-10-12T11:03:38.434Z,52.10
2017-10-12T11:06:06.776Z,51.90
2017-10-12T11:08:35.854Z,51.00
2017-10-12T11:11:04.332Z,51.00
2017-10-12T11:13:32.817Z,50.80
2017-10-12T11:16:01.250Z,50.80
2017-10-12T11:18:29.904Z,50.70
2017-10-12T11:20:59.313Z,50.40
2017-10-12T11:23:28.705Z,50.70
2017-10-12T11:26:02.265Z,50.40
2017-10-12T11:28:31.468Z,50.10
2017-10-12T11:31:01.557Z,49.90
2017-10-12T11:33:29.961Z,49.80
2017-10-12T11:36:00.061Z,50.00
2017-10-12T11:38:28.443Z,50.00
2017-10-12T11:40:57.525Z,49.80
2017-10-12T11:43:25.899Z,50.00
2017-10-12T11:45:54.260Z,50.00
2017-10-12T11:48:22.703Z,50.20
2017-10-12T11:50:53.392Z,50.10
2017-10-12T11:53:22.800Z,50.10
2017-10-12T11:55:52.128Z,49.60
2017-10-12T11:58:22.005Z,49.70
2017-10-12T12:00:50.380Z,49.70
2017-10-12T12:03:19.758Z,49.50
2017-10-12T12:05:48.191Z,49.10
2017-10-12T12:08:20.572Z,49.40
2017-10-12T12:10:50.704Z,49.00
2017-10-12T12:13:19.029Z,48.80
2017-10-12T12:15:47.274Z,48.90
2017-10-12T12:18:15.600Z,48.70
2017-10-12T12:20:43.924Z,48.70
2017-10-12T12:23:12.228Z,48.70
2017-10-12T12:25:41.480Z,48.40
2017-10-12T12:28:09.794Z,48.30
2017-10-12T12:30:38.083Z,48.90
2017-10-12T12:33:06.390Z,48.80
2017-10-12T12:35:35.480Z,48.60
2017-10-12T12:38:03.776Z,48.30
2017-10-12T12:40:33.851Z,48.40
2017-10-12T12:43:02.236Z,48.60
2017-10-12T12:45:31.452Z,48.70
2017-10-12T12:48:00.613Z,48.60
2017-10-12T12:50:29.851Z,48.30
2017-10-12T12:52:58.210Z,48.20
2017-10-12T12:55:26.578Z,48.10
2017-10-12T12:57:54.924Z,48.20
2017-10-12T13:00:23.262Z,48.10
2017-10-12T13:02:51.661Z,48.00
2017-10-12T13:05:19.954Z,47.70
2017-10-12T13:07:48.258Z,46.90
2017-10-12T13:10:16.570Z,47.00
2017-10-12T13:12:44.891Z,46.40
2017-10-12T13:15:13.245Z,46.70
2017-10-12T13:17:41.545Z,46.60
2017-10-12T13:20:09.871Z,46.20
2017-10-12T13:22:38.368Z,46.20
2017-10-12T13:25:06.680Z,46.10
2017-10-12T13:27:35.024Z,45.90
2017-10-12T13:30:04.128Z,45.70
2017-10-12T13:32:33.317Z,46.50
2017-10-12T13:35:03.447Z,46.70
2017-10-12T13:37:33.422Z,46.50
2017-10-12T13:40:01.917Z,46.60
2017-10-12T13:42:31.078Z,45.80
2017-10-12T13:44:59.498Z,46.40
2017-10-12T13:47:27.943Z,46.20
2017-10-12T13:49:56.288Z,45.90
2017-10-12T13:52:26.175Z,46.10
2017-10-12T13:54:56.396Z,45.70
2017-10-12T13:57:25.589Z,45.90
2017-10-12T13:59:54.108Z,46.10
2017-10-12T14:02:22.554Z,45.80
2017-10-12T14:04:52.010Z,45.80
2017-10-12T14:07:20.838Z,46.40
2017-10-12T14:09:49.306Z,45.90
2017-10-12T14:12:17.698Z,45.70
2017-10-12T14:14:46.823Z,45.60
2017-10-12T14:17:15.311Z,45.70
2017-10-12T14:19:43.881Z,45.90
2017-10-12T14:22:12.315Z,45.90
2017-10-12T14:24:40.712Z,45.90
2017-10-12T14:27:09.088Z,45.80
2017-10-12T14:29:37.542Z,45.80
2017-10-12T14:32:05.891Z,45.90
2017-10-12T14:34:34.296Z,45.90
2017-10-12T14:37:03.502Z,45.90
2017-10-12T14:39:32.878Z,45.90
2017-10-12T14:42:03.184Z,45.90
2017-10-12T14:44:31.673Z,46.00
2017-10-12T14:47:00.020Z,46.00
2017-10-12T14:49:29.248Z,46.20
2017-10-12T14:51:58.296Z,46.20
2017-10-12T14:54:27.670Z,46.00
2017-10-12T14:56:57.025Z,45.90
2017-10-12T14:59:27.028Z,46.30
2017-10-12T15:01:56.289Z,46.00
2017-10-12T15:04:24.611Z,46.00
2017-10-12T15:06:53.723Z,46.00
2017-10-12T15:09:23.703Z,46.20
2017-10-12T15:11:52.063Z,45.90
2017-10-12T15:14:21.438Z,46.00
2017-10-12T15:16:49.823Z,46.00
2017-10-12T15:19:18.340Z,46.00
2017-10-12T15:21:46.672Z,46.00
2017-10-12T15:24:15.792Z,46.20
2017-10-12T15:26:46.298Z,46.20
2017-10-12T15:29:16.385Z,45.90
2017-10-12T15:31:44.688Z,46.50
2017-10-12T15:34:13.757Z,46.20
2017-10-12T15:36:42.052Z,46.00
2017-10-12T15:39:10.387Z,46.40
2017-10-12T15:41:38.645Z,46.40
2017-10-12T15:44:07.841Z,46.30
2017-10-12T15:46:36.971Z,46.30
2017-10-12T15:49:05.238Z,46.70
2017-10-12T15:51:33.591Z,46.10
2017-10-12T15:54:01.882Z,46.40
2017-10-12T15:56:30.160Z,46.50
2017-10-12T15:58:58.456Z,46.20
2017-10-12T16:01:26.767Z,46.10
2017-10-12T16:03:55.848Z,46.40
2017-10-12T16:06:24.149Z,46.40
2017-10-12T16:08:52.491Z,46.80
2017-10-12T16:11:20.780Z,47.00
2017-10-12T16:13:49.846Z,46.60
2017-10-12T16:16:18.217Z,46.30
2017-10-12T16:18:52.204Z,46.50
2017-10-12T16:21:20.548Z,46.50
2017-10-12T16:23:48.842Z,46.30
2017-10-12T16:26:18.000Z,46.40
2017-10-12T16:28:47.627Z,46.40
2017-10-12T16:31:16.766Z,46.10
2017-10-12T16:33:45.100Z,46.40
2017-10-12T16:36:13.488Z,46.00
2017-10-12T16:38:42.557Z,46.70
2017-10-12T16:41:10.929Z,46.70
2017-10-12T16:43:39.292Z,46.90
2017-10-12T16:46:07.607Z,47.20
2017-10-12T16:48:35.973Z,47.20
2017-10-12T16:51:04.862Z,47.30
2017-10-12T16:53:33.161Z,47.50
2017-10-12T16:56:01.487Z,47.80
2017-10-12T16:58:30.012Z,48.00
2017-10-12T17:00:58.342Z,48.00
2017-10-12T17:03:26.700Z,48.70
2017-10-12T17:05:56.078Z,48.80
2017-10-12T17:08:26.386Z,49.40
2017-10-12T17:10:57.303Z,49.40
2017-10-12T17:13:25.910Z,49.40
2017-10-12T17:15:55.218Z,49.20
2017-10-12T17:18:24.352Z,49.70
2017-10-12T17:20:55.570Z,49.80
2017-10-12T17:23:55.392Z,49.70
2017-10-12T17:25:55.289Z,49.80
2017-10-12T17:28:23.981Z,49.70
2017-10-12T17:33:22.728Z,50.30
2017-10-12T17:35:51.100Z,50.40
2017-10-12T17:38:20.531Z,50.90
2017-10-12T17:40:49.977Z,50.20
2017-10-12T17:43:18.594Z,50.30
2017-10-12T17:45:47.043Z,50.50
2017-10-12T17:48:17.031Z,50.50
2017-10-12T17:50:46.561Z,51.10
2017-10-12T17:53:15.338Z,50.20
2017-10-12T17:55:43.896Z,50.30
2017-10-12T17:58:13.101Z,50.40
2017-10-12T18:00:41.508Z,50.40
2017-10-12T18:03:12.645Z,50.80
2017-10-12T18:05:42.566Z,50.90
2017-10-12T18:08:13.093Z,51.20
2017-10-12T18:10:42.370Z,51.20
2017-10-12T18:13:12.021Z,51.80
2017-10-12T18:15:42.389Z,51.20
2017-10-12T18:18:11.305Z,51.20
2017-10-12T18:20:40.767Z,51.40
2017-10-12T18:23:10.369Z,51.30
2017-10-12T18:25:39.280Z,51.00
2017-10-12T18:28:09.445Z,51.20
2017-10-12T18:30:41.585Z,51.30
2017-10-12T18:33:10.725Z,51.40
2017-10-12T18:35:41.545Z,52.00
2017-10-12T18:38:10.395Z,51.60
2017-10-12T18:40:39.211Z,51.50
2017-10-12T18:43:09.703Z,51.40
2017-10-12T18:45:39.905Z,51.90
2017-10-12T18:48:09.163Z,51.80
2017-10-12T18:50:38.682Z,51.70
2017-10-12T18:53:07.199Z,51.50
2017-10-12T18:55:35.744Z,51.70
2017-10-12T18:58:10.176Z,51.70
2017-10-12T19:00:42.201Z,51.80
2017-10-12T19:03:11.507Z,51.80
2017-10-12T19:05:42.474Z,51.70
2017-10-12T19:08:11.374Z,51.70
2017-10-12T19:10:45.279Z,52.10
2017-10-12T19:13:16.629Z,51.80
2017-10-12T19:15:48.007Z,51.90
2017-10-12T19:18:17.625Z,52.20
2017-10-12T19:20:48.692Z,52.30
2017-10-12T19:23:18.119Z,52.40
2017-10-12T19:25:47.584Z,52.40
2017-10-12T19:30:45.190Z,52.40
2017-10-12T19:33:14.367Z,52.10
2017-10-12T19:35:44.522Z,52.20
2017-10-12T19:38:13.181Z,52.30
2017-10-12T19:40:42.383Z,52.60
2017-10-12T19:43:10.691Z,52.40
2017-10-12T19:45:39.955Z,52.30
2017-10-12T19:48:08.360Z,52.40
2017-10-12T19:50:38.329Z,52.70
2017-10-12T19:53:06.714Z,52.90
2017-10-12T19:55:37.092Z,52.90
2017-10-12T19:58:07.933Z,53.00
2017-10-12T20:00:36.382Z,52.90
2017-10-12T20:03:04.849Z,53.00
2017-10-12T20:05:33.192Z,53.00
2017-10-12T20:08:02.423Z,52.70
2017-10-12T20:10:30.834Z,52.80
2017-10-12T20:12:59.323Z,53.00
2017-10-12T20:15:27.663Z,52.90
2017-10-12T20:17:57.471Z,53.60
2017-10-12T20:20:27.977Z,52.70
2017-10-12T20:22:56.453Z,53.00
2017-10-12T20:25:26.191Z,52.70
2017-10-12T20:27:55.625Z,52.70
2017-10-12T20:30:25.972Z,52.80
2017-10-12T20:32:55.133Z,52.80
2017-10-12T20:35:23.563Z,52.70
2017-10-12T20:37:52.828Z,52.80
2017-10-12T20:40:22.313Z,52.70
2017-10-12T20:42:50.908Z,52.80
2017-10-12T20:45:19.250Z,52.70
2017-10-12T20:47:47.663Z,52.90
2017-10-12T20:50:16.615Z,52.90
2017-10-12T20:52:45.856Z,52.80
2017-10-12T20:55:15.012Z,52.70
2017-10-12T20:57:43.799Z,52.70
2017-10-12T21:00:13.064Z,52.60
2017-10-12T21:02:48.653Z,52.70
2017-10-12T21:05:09.925Z,52.80
2017-10-12T21:07:38.310Z,52.70
2017-10-12T21:10:07.632Z,53.50
2017-10-12T21:12:36.910Z,53.00
2017-10-12T21:15:05.293Z,52.70
2017-10-12T21:17:33.794Z,52.80
2017-10-12T21:20:03.052Z,52.60
2017-10-12T21:22:31.356Z,52.70
2017-10-12T21:25:00.495Z,52.90
2017-10-12T21:27:28.826Z,52.70
2017-10-12T21:29:57.204Z,52.90
2017-10-12T21:32:32.435Z,52.80
2017-10-12T21:35:00.765Z,52.80
2017-10-12T21:37:29.040Z,52.70
2017-10-12T21:40:04.002Z,52.90
2017-10-12T21:42:32.321Z,52.70
2017-10-12T21:45:00.677Z,52.90
2017-10-12T21:47:29.922Z,52.80
2017-10-12T21:49:58.268Z,52.80
2017-10-12T21:52:27.353Z,53.00
2017-10-12T21:54:56.419Z,53.20
2017-10-12T21:57:24.698Z,53.00
2017-10-12T21:59:53.873Z,53.10
2017-10-12T22:02:23.070Z,53.40
2017-10-12T22:04:51.375Z,53.10
2017-10-12T22:07:19.689Z,53.30
2017-10-12T22:09:52.922Z,53.20
2017-10-12T22:12:22.140Z,53.10
2017-10-12T22:14:50.412Z,53.10
2017-10-12T22:17:18.709Z,53.40
2017-10-12T22:19:47.808Z,53.20
2017-10-12T22:22:16.595Z,53.10
2017-10-12T22:24:44.903Z,53.00
2017-10-12T22:27:13.234Z,53.20
2017-10-12T22:29:41.687Z,53.60
2017-10-12T22:32:09.936Z,53.60
2017-10-12T22:34:38.256Z,54.00
2017-10-12T22:37:06.564Z,53.70
2017-10-12T22:39:34.830Z,53.70
2017-10-12T22:42:03.106Z,53.70
2017-10-12T22:44:32.150Z,53.90
2017-10-12T22:47:01.415Z,53.50
2017-10-12T22:49:30.618Z,53.50
2017-10-12T22:51:59.670Z,53.60
2017-10-12T22:54:27.927Z,53.70
2017-10-12T22:56:56.434Z,54.10
2017-10-12T22:59:24.676Z,54.30
2017-10-12T23:01:52.960Z,54.00
2017-10-12T23:04:21.291Z,53.80
2017-10-12T23:06:50.304Z,54.00
2017-10-12T23:09:18.577Z,53.90
2017-10-12T23:11:46.909Z,53.90
2017-10-12T23:14:15.174Z,53.80
2017-10-12T23:16:43.443Z,54.00
2017-10-12T23:19:11.782Z,53.70
2017-10-12T23:21:41.041Z,53.90
2017-10-12T23:24:09.279Z,54.10
2017-10-12T23:26:37.569Z,54.10
2017-10-12T23:29:05.928Z,54.30
2017-10-12T23:31:34.208Z,54.10
2017-10-12T23:34:02.503Z,54.00
2017-10-12T23:36:31.564Z,53.90
2017-10-12T23:38:59.838Z,54.20
2017-10-12T23:41:29.746Z,54.30
2017-10-12T23:43:59.753Z,54.40
2017-10-12T23:46:28.809Z,54.60
2017-10-12T23:48:57.147Z,54.60
2017-10-12T23:51:25.388Z,54.50
2017-10-12T23:53:54.430Z,54.50
2017-10-12T23:56:22.880Z,54.50
2017-10-12T23:58:52.752Z,54.40
